Tuttle, North Dakota
Current Conditions -  °F | °C
As of 2:55 AM on Sunday 23 Nov 2014 (Local Time) from K5H4 Reporting Station
Overcast Overcast  
Wind Chill: 30°   Ceiling: 9000
Heat Index: 37°   Visibility: 10mi
Dew Point: 32°   Wind: 10mph
Humidity: 81%   Direction: 270°W
Pressure: 29.35"   Gusts: NA
Location:  47.14°N, 99.99°W
Report Text: K5H4 230855Z AUTO 27009KT 10SM SCT075 OVC090 03/00 A2935 RMK AO2
Loading
Personal Weather Stations






























Interactive Weather Map New forecast layout! Learn more

10-Day Weather Forecast

Advertisements
Track Severe Weather on mobile